createdAt,value
2023-09-20T00:01:11.576Z,12.55
2023-09-20T00:04:37.050Z,12.53
2023-09-20T00:07:59.877Z,12.52
2023-09-20T00:11:22.124Z,12.47
2023-09-20T00:14:45.436Z,12.45
2023-09-20T00:18:07.229Z,12.44
2023-09-20T00:21:28.873Z,12.41
2023-09-20T00:24:50.325Z,12.38
2023-09-20T00:28:12.795Z,12.38
2023-09-20T00:31:35.946Z,12.26
2023-09-20T00:34:57.774Z,12.30
2023-09-20T00:38:19.641Z,12.34
2023-09-20T00:41:42.506Z,12.33
2023-09-20T00:45:05.009Z,12.29
2023-09-20T00:48:30.636Z,12.30
2023-09-20T00:51:52.597Z,12.30
2023-09-20T00:55:18.077Z,12.28
2023-09-20T00:58:41.039Z,12.26
2023-09-20T01:02:05.173Z,12.25
2023-09-20T01:05:29.161Z,12.24
2023-09-20T01:08:50.833Z,12.22
2023-09-20T01:12:12.360Z,12.19
2023-09-20T01:15:35.894Z,12.20
2023-09-20T01:18:57.539Z,12.21
2023-09-20T01:22:20.937Z,12.23
2023-09-20T01:25:44.843Z,12.24
2023-09-20T01:29:06.815Z,12.25
2023-09-20T01:32:28.769Z,12.22
2023-09-20T01:35:50.331Z,12.27
2023-09-20T01:39:13.651Z,12.27
2023-09-20T01:42:35.599Z,12.26
2023-09-20T01:45:57.377Z,12.25
2023-09-20T01:49:19.829Z,12.28
2023-09-20T01:52:43.136Z,12.29
2023-09-20T01:56:06.484Z,12.30
2023-09-20T01:59:28.223Z,12.31
2023-09-20T02:02:50.296Z,12.31
2023-09-20T02:06:12.619Z,12.33
2023-09-20T02:09:36.144Z,12.33
2023-09-20T02:13:00.418Z,12.34
2023-09-20T02:16:22.597Z,12.34
2023-09-20T02:19:47.094Z,12.38
2023-09-20T02:23:13.854Z,12.33
2023-09-20T02:26:38.348Z,12.39
2023-09-20T02:30:01.699Z,12.36
2023-09-20T02:33:23.357Z,12.35
2023-09-20T02:36:46.133Z,12.40
2023-09-20T02:40:14.272Z,12.38
2023-09-20T02:43:36.011Z,12.39
2023-09-20T02:47:00.362Z,12.39
2023-09-20T02:50:25.084Z,12.40
2023-09-20T02:53:46.674Z,12.40
2023-09-20T02:57:08.798Z,12.42
2023-09-20T03:00:33.275Z,12.43
2023-09-20T03:03:57.781Z,12.45
2023-09-20T03:07:19.732Z,12.49
2023-09-20T03:10:43.019Z,12.52
2023-09-20T03:14:09.631Z,12.53
2023-09-20T03:17:33.381Z,12.51
2023-09-20T03:20:58.011Z,12.52
2023-09-20T03:24:19.628Z,12.53
2023-09-20T03:27:43.903Z,12.53
2023-09-20T03:31:09.009Z,12.55
2023-09-20T03:34:31.784Z,12.57
2023-09-20T03:37:54.793Z,12.59
2023-09-20T03:41:16.516Z,12.64
2023-09-20T03:44:40.244Z,12.66
2023-09-20T03:48:02.934Z,12.71
2023-09-20T03:51:24.638Z,12.75
2023-09-20T03:54:51.427Z,12.79
2023-09-20T03:58:13.518Z,12.79
2023-09-20T04:01:37.986Z,12.84
2023-09-20T04:05:01.569Z,12.86
2023-09-20T04:08:23.595Z,12.91
2023-09-20T04:11:46.973Z,12.91
2023-09-20T04:15:11.100Z,12.91
2023-09-20T04:18:34.487Z,12.95
2023-09-20T04:21:57.223Z,12.95
2023-09-20T04:25:19.614Z,12.97
2023-09-20T04:28:43.020Z,13.02
2023-09-20T04:32:05.651Z,13.04
2023-09-20T04:35:27.680Z,13.00
2023-09-20T04:38:49.650Z,13.10
2023-09-20T04:42:14.285Z,13.11
2023-09-20T04:45:37.428Z,13.18
2023-09-20T04:49:00.368Z,13.19
2023-09-20T04:52:23.296Z,13.21
2023-09-20T04:55:45.071Z,13.23
2023-09-20T04:59:09.817Z,13.27
2023-09-20T05:02:33.486Z,13.32
2023-09-20T05:05:55.360Z,13.35
2023-09-20T05:09:16.906Z,13.44
2023-09-20T05:12:39.413Z,13.50
2023-09-20T05:16:01.394Z,13.59
2023-09-20T05:19:25.242Z,13.62
2023-09-20T05:22:47.061Z,13.66
2023-09-20T05:26:09.713Z,13.75
2023-09-20T05:29:31.927Z,13.83
2023-09-20T05:32:54.898Z,13.79
2023-09-20T05:36:22.434Z,13.86
2023-09-20T05:39:49.070Z,13.89
2023-09-20T05:43:10.964Z,13.87
2023-09-20T05:46:32.897Z,13.96
2023-09-20T05:49:55.023Z,14.04
2023-09-20T05:53:18.361Z,14.10
2023-09-20T05:56:40.475Z,14.18
2023-09-20T06:00:10.317Z,14.21
2023-09-20T06:03:32.342Z,14.29
2023-09-20T06:06:55.444Z,14.35
2023-09-20T06:10:19.792Z,14.43
2023-09-20T06:13:41.861Z,14.52
2023-09-20T06:17:03.699Z,14.59
2023-09-20T06:20:25.818Z,14.57
2023-09-20T06:23:47.853Z,14.60
2023-09-20T06:27:11.138Z,14.61
2023-09-20T06:30:32.736Z,14.64
2023-09-20T06:33:54.355Z,14.69
2023-09-20T06:37:16.328Z,14.72
2023-09-20T06:40:40.154Z,14.73
2023-09-20T06:44:04.325Z,14.79
2023-09-20T06:47:26.324Z,14.81
2023-09-20T06:50:48.469Z,14.79
2023-09-20T06:54:10.395Z,14.82
2023-09-20T06:57:34.469Z,14.84
2023-09-20T07:00:57.591Z,14.92
2023-09-20T07:04:20.313Z,14.97
2023-09-20T07:07:43.619Z,15.01
2023-09-20T07:11:06.068Z,15.13
2023-09-20T07:14:27.691Z,15.16
2023-09-20T07:18:00.071Z,15.26
2023-09-20T07:21:22.314Z,15.33
2023-09-20T07:24:47.098Z,15.42
2023-09-20T07:28:11.097Z,15.47
2023-09-20T07:31:38.236Z,15.50
2023-09-20T07:35:05.143Z,15.51
2023-09-20T07:38:29.486Z,15.52
2023-09-20T07:41:52.618Z,15.52
2023-09-20T07:45:14.676Z,15.53
2023-09-20T07:48:39.751Z,15.57
2023-09-20T07:52:05.699Z,15.60
2023-09-20T07:55:28.631Z,15.61
2023-09-20T07:58:50.666Z,15.63
2023-09-20T08:02:13.590Z,15.67
2023-09-20T08:05:35.663Z,15.69
2023-09-20T08:08:59.289Z,15.66
2023-09-20T08:12:21.223Z,15.72
2023-09-20T08:15:45.020Z,15.75
2023-09-20T08:19:08.174Z,15.75
2023-09-20T08:22:47.418Z,15.77
2023-09-20T08:26:27.748Z,15.80
2023-09-20T08:30:07.422Z,15.80
2023-09-20T08:33:46.241Z,15.83
2023-09-20T08:37:26.008Z,15.84
2023-09-20T08:41:05.268Z,15.82
2023-09-20T08:44:46.117Z,15.83
2023-09-20T08:48:29.824Z,15.82
2023-09-20T08:52:12.889Z,15.85
2023-09-20T08:55:51.997Z,15.85
2023-09-20T08:59:31.866Z,15.88
2023-09-20T09:02:58.195Z,15.93
2023-09-20T09:06:20.422Z,15.96
2023-09-20T09:09:42.908Z,16.01
2023-09-20T09:13:04.614Z,16.03
2023-09-20T09:16:27.599Z,16.07
2023-09-20T09:19:51.078Z,16.10
2023-09-20T09:23:12.757Z,16.13
2023-09-20T09:26:34.613Z,16.16
2023-09-20T09:29:56.258Z,16.18
2023-09-20T09:33:18.830Z,16.14
2023-09-20T09:36:42.581Z,16.17
2023-09-20T09:40:05.309Z,16.20
2023-09-20T09:43:29.117Z,16.21
2023-09-20T09:46:51.772Z,16.27
2023-09-20T09:50:14.867Z,16.27
2023-09-20T09:53:40.682Z,16.30
2023-09-20T09:57:03.057Z,16.14
2023-09-20T10:00:27.792Z,16.22
2023-09-20T10:03:52.903Z,16.18
2023-09-20T10:07:17.863Z,16.29
2023-09-20T10:10:43.001Z,16.27
2023-09-20T10:14:09.140Z,16.25
2023-09-20T10:17:31.927Z,16.22
2023-09-20T10:21:06.415Z,16.26
2023-09-20T10:24:30.142Z,16.28
2023-09-20T10:27:54.974Z,16.31
2023-09-20T10:31:17.772Z,16.32
2023-09-20T10:34:40.010Z,16.37
2023-09-20T10:38:26.887Z,16.38
2023-09-20T10:41:50.706Z,16.36
2023-09-20T10:45:21.078Z,16.38
2023-09-20T10:48:49.918Z,16.41
2023-09-20T10:52:11.873Z,16.44
2023-09-20T10:55:36.944Z,16.47
2023-09-20T10:59:01.238Z,16.49
2023-09-20T11:02:27.009Z,16.50
2023-09-20T11:05:49.145Z,16.49
2023-09-20T11:09:12.897Z,16.34
2023-09-20T11:12:35.576Z,16.49
2023-09-20T11:16:01.321Z,16.47
2023-09-20T11:19:24.735Z,16.46
2023-09-20T11:22:47.164Z,16.57
2023-09-20T11:26:10.088Z,16.63
2023-09-20T11:29:32.565Z,16.66
2023-09-20T11:32:54.445Z,16.68
2023-09-20T11:36:20.660Z,16.74
2023-09-20T11:39:44.860Z,16.82
2023-09-20T11:43:07.289Z,16.85
2023-09-20T11:46:30.469Z,16.90
2023-09-20T11:49:52.925Z,16.96
2023-09-20T11:53:17.300Z,17.01
2023-09-20T11:56:39.959Z,17.07
2023-09-20T12:00:02.575Z,17.00
2023-09-20T12:03:24.402Z,17.00
2023-09-20T12:06:47.068Z,16.94
2023-09-20T12:10:11.273Z,16.96
2023-09-20T12:13:33.104Z,16.95
2023-09-20T12:16:57.278Z,16.96
2023-09-20T12:20:18.990Z,17.01
2023-09-20T12:23:41.417Z,17.03
2023-09-20T12:27:06.527Z,17.04
2023-09-20T12:30:29.982Z,17.02
2023-09-20T12:33:52.516Z,17.05
2023-09-20T12:37:15.099Z,17.06
2023-09-20T12:40:37.505Z,17.10
2023-09-20T12:44:00.367Z,17.11
2023-09-20T12:47:23.429Z,17.08
2023-09-20T12:50:45.812Z,17.05
2023-09-20T12:54:07.619Z,17.03
2023-09-20T12:57:29.753Z,17.03
2023-09-20T13:00:52.998Z,17.02
2023-09-20T13:04:15.264Z,17.00
2023-09-20T13:07:37.064Z,16.97
2023-09-20T13:10:59.007Z,16.97
2023-09-20T13:14:21.286Z,16.90
2023-09-20T13:17:45.860Z,16.91
2023-09-20T13:21:08.422Z,16.92
2023-09-20T13:24:30.817Z,16.92
2023-09-20T13:27:52.753Z,16.96
2023-09-20T13:31:14.986Z,16.97
2023-09-20T13:34:39.420Z,16.96
2023-09-20T13:38:00.901Z,16.91
2023-09-20T13:41:23.254Z,16.83
2023-09-20T13:44:47.029Z,16.73
2023-09-20T13:48:09.122Z,16.63
2023-09-20T13:51:32.262Z,16.55
2023-09-20T13:54:55.673Z,16.44
2023-09-20T13:58:17.489Z,16.45
2023-09-20T14:01:40.746Z,16.44
2023-09-20T14:05:02.317Z,16.46
2023-09-20T14:08:25.409Z,16.49
2023-09-20T14:11:47.564Z,16.44
2023-09-20T14:15:12.611Z,16.36
2023-09-20T14:18:34.573Z,16.31
2023-09-20T14:21:56.617Z,16.26
2023-09-20T14:25:19.990Z,16.28
2023-09-20T14:28:43.537Z,16.27
2023-09-20T14:32:06.245Z,16.24
2023-09-20T14:35:28.451Z,16.23
2023-09-20T14:38:50.505Z,16.24
2023-09-20T14:42:14.152Z,16.23
2023-09-20T14:45:36.145Z,16.19
2023-09-20T14:48:58.828Z,16.16
2023-09-20T14:52:20.808Z,16.17
2023-09-20T14:55:43.007Z,16.17
2023-09-20T14:59:06.966Z,16.17
2023-09-20T15:02:28.886Z,16.16
2023-09-20T15:05:50.801Z,16.19
2023-09-20T15:09:16.468Z,16.19
2023-09-20T15:12:38.992Z,16.18
2023-09-20T15:16:02.232Z,16.19
2023-09-20T15:19:25.105Z,16.19
2023-09-20T15:22:47.403Z,16.17
2023-09-20T15:26:13.096Z,16.15
2023-09-20T15:29:35.049Z,16.07
2023-09-20T15:32:58.761Z,16.10
2023-09-20T15:36:21.813Z,16.09
2023-09-20T15:39:44.476Z,16.07
2023-09-20T15:43:07.486Z,16.06
2023-09-20T15:46:29.701Z,16.05
2023-09-20T15:49:52.526Z,16.01
2023-09-20T15:53:15.668Z,16.03
2023-09-20T15:56:39.938Z,15.99
2023-09-20T16:00:02.003Z,16.01
2023-09-20T16:03:24.276Z,16.00
2023-09-20T16:06:47.835Z,16.00
2023-09-20T16:10:15.619Z,15.97
2023-09-20T16:13:37.969Z,15.95
2023-09-20T16:17:00.886Z,15.92
2023-09-20T16:20:23.679Z,15.94
2023-09-20T16:23:50.275Z,15.91
2023-09-20T16:27:12.483Z,15.88
2023-09-20T16:30:34.516Z,15.87
2023-09-20T16:33:56.409Z,15.85
2023-09-20T16:37:18.125Z,15.84
2023-09-20T16:40:41.350Z,15.83
2023-09-20T16:44:02.995Z,15.79
2023-09-20T16:47:27.154Z,15.79
2023-09-20T16:50:50.725Z,15.77
2023-09-20T16:54:14.557Z,15.74
2023-09-20T16:57:37.814Z,15.74
2023-09-20T17:00:59.324Z,15.69
2023-09-20T17:04:21.019Z,15.71
2023-09-20T17:07:42.704Z,15.73
2023-09-20T17:11:04.330Z,15.73
2023-09-20T17:14:29.248Z,15.71
2023-09-20T17:17:50.936Z,15.73
2023-09-20T17:21:12.846Z,15.71
2023-09-20T17:24:35.012Z,15.74
2023-09-20T17:27:56.532Z,15.72
2023-09-20T17:31:19.573Z,15.71
2023-09-20T17:34:41.782Z,15.66
2023-09-20T17:38:03.828Z,15.68
2023-09-20T17:41:30.908Z,15.69
2023-09-20T17:44:53.028Z,15.70
2023-09-20T17:48:16.564Z,15.69
2023-09-20T17:51:38.582Z,15.68
2023-09-20T17:55:01.310Z,15.69
2023-09-20T17:58:23.349Z,15.54
2023-09-20T18:01:46.198Z,15.68
2023-09-20T18:05:11.008Z,15.66
2023-09-20T18:08:34.057Z,15.65
2023-09-20T18:11:55.846Z,15.63
2023-09-20T18:15:19.457Z,15.65
2023-09-20T18:18:41.642Z,15.61
2023-09-20T18:22:05.576Z,15.62
2023-09-20T18:25:27.744Z,15.60
2023-09-20T18:28:51.041Z,15.60
2023-09-20T18:32:12.620Z,15.61
2023-09-20T18:35:35.930Z,15.63
2023-09-20T18:39:00.377Z,15.56
2023-09-20T18:42:22.510Z,15.64
2023-09-20T18:45:45.535Z,15.62
2023-09-20T18:49:07.742Z,15.65
2023-09-20T18:52:29.603Z,15.63
2023-09-20T18:55:53.046Z,15.63
2023-09-20T18:59:15.267Z,15.64
2023-09-20T19:02:37.079Z,15.63
2023-09-20T19:06:01.370Z,15.62
2023-09-20T19:09:25.367Z,15.65
2023-09-20T19:12:48.722Z,15.64
2023-09-20T19:16:12.681Z,15.65
2023-09-20T19:19:35.387Z,15.67
2023-09-20T19:22:57.314Z,15.66
2023-09-20T19:26:20.766Z,15.67
2023-09-20T19:29:43.960Z,15.68
2023-09-20T19:33:06.847Z,15.66
2023-09-20T19:36:30.012Z,15.65
2023-09-20T19:39:52.022Z,15.66
2023-09-20T19:43:13.642Z,15.65
2023-09-20T19:46:36.976Z,15.61
2023-09-20T19:50:01.453Z,15.68
2023-09-20T19:53:27.795Z,15.68
2023-09-20T19:56:51.293Z,15.68
2023-09-20T20:00:25.783Z,15.67
2023-09-20T20:03:49.278Z,15.68
2023-09-20T20:07:26.818Z,15.69
2023-09-20T20:10:49.848Z,15.66
2023-09-20T20:14:11.627Z,15.63
2023-09-20T20:17:34.080Z,15.68
2023-09-20T20:21:03.985Z,15.69
2023-09-20T20:24:26.177Z,15.67
2023-09-20T20:27:49.350Z,15.65
2023-09-20T20:31:12.151Z,15.67
2023-09-20T20:34:38.115Z,15.68
2023-09-20T20:38:01.598Z,15.69
2023-09-20T20:41:23.541Z,15.63
2023-09-20T20:44:45.255Z,15.69
2023-09-20T20:52:54.867Z,15.68
2023-09-20T20:56:18.994Z,15.68
2023-09-20T20:59:41.769Z,15.68
2023-09-20T21:03:11.198Z,15.69
2023-09-20T21:06:35.963Z,15.70
2023-09-20T21:09:57.810Z,15.69
2023-09-20T21:13:22.846Z,15.70
2023-09-20T21:16:45.179Z,15.69
2023-09-20T21:20:21.587Z,15.67
2023-09-20T21:23:44.126Z,15.67
2023-09-20T21:27:06.622Z,15.66
2023-09-20T21:30:32.566Z,15.66
2023-09-20T21:33:54.342Z,15.67
2023-09-20T21:37:16.192Z,15.68
2023-09-20T21:40:39.555Z,15.68
2023-09-20T21:44:01.688Z,15.65
2023-09-20T21:47:24.768Z,15.66
2023-09-20T21:50:47.334Z,15.67
2023-09-20T21:54:09.423Z,15.67
2023-09-20T21:57:31.909Z,15.67
2023-09-20T22:00:53.577Z,15.67
2023-09-20T22:04:18.546Z,15.68
2023-09-20T22:07:40.817Z,15.66
2023-09-20T22:11:05.734Z,15.66
2023-09-20T22:14:27.441Z,15.65
2023-09-20T22:17:50.678Z,15.66
2023-09-20T22:21:14.140Z,15.66
2023-09-20T22:24:36.407Z,15.66
2023-09-20T22:27:58.503Z,15.63
2023-09-20T22:31:20.373Z,15.63
2023-09-20T22:34:42.041Z,15.62
2023-09-20T22:38:05.595Z,15.63
2023-09-20T22:41:27.145Z,15.64
2023-09-20T22:44:49.155Z,15.65
2023-09-20T22:48:11.281Z,15.65
2023-09-20T22:51:33.322Z,15.65
2023-09-20T22:54:56.223Z,15.65
2023-09-20T22:58:22.100Z,15.65
2023-09-20T23:01:45.004Z,15.65
2023-09-20T23:05:16.728Z,15.65
2023-09-20T23:08:39.707Z,15.67
2023-09-20T23:12:03.369Z,15.69
2023-09-20T23:15:27.290Z,15.65
2023-09-20T23:18:49.432Z,15.59
2023-09-20T23:22:18.053Z,15.62
2023-09-20T23:25:42.431Z,15.63
2023-09-20T23:29:06.573Z,15.63
2023-09-20T23:32:31.416Z,15.63
2023-09-20T23:35:56.008Z,15.62
2023-09-20T23:39:22.135Z,15.64
2023-09-20T23:42:44.364Z,15.63
2023-09-20T23:46:10.756Z,15.61
2023-09-20T23:49:32.586Z,15.61
2023-09-20T23:52:54.114Z,15.62
2023-09-20T23:56:18.753Z,15.65
2023-09-20T23:59:40.989Z,15.59
